createdAt,value
2022-12-03T00:01:21.255Z,18.71
2022-12-03T00:04:25.226Z,18.10
2022-12-03T00:07:29.102Z,17.48
2022-12-03T00:10:33.079Z,17.44
2022-12-03T00:13:37.055Z,17.08
2022-12-03T00:16:40.691Z,17.21
2022-12-03T00:19:44.960Z,17.01
2022-12-03T00:22:49.007Z,17.38
2022-12-03T00:25:53.010Z,17.86
2022-12-03T00:28:57.115Z,16.53
2022-12-03T00:32:01.226Z,16.89
2022-12-03T00:35:05.368Z,16.66
2022-12-03T00:38:09.535Z,16.72
2022-12-03T00:41:12.897Z,16.02
2022-12-03T00:44:16.986Z,16.60
2022-12-03T00:47:21.371Z,16.62
2022-12-03T00:50:25.624Z,16.28
2022-12-03T00:53:29.887Z,16.59
2022-12-03T00:56:33.614Z,16.43
2022-12-03T00:59:37.703Z,15.98
2022-12-03T01:02:41.823Z,15.80
2022-12-03T01:05:45.286Z,15.46
2022-12-03T01:08:48.894Z,15.29
2022-12-03T01:11:52.931Z,15.12
2022-12-03T01:14:56.634Z,15.13
2022-12-03T01:18:00.524Z,14.92
2022-12-03T01:21:05.296Z,15.17
2022-12-03T01:24:09.396Z,15.39
2022-12-03T01:27:13.702Z,15.39
2022-12-03T01:30:17.534Z,14.23
2022-12-03T01:33:21.502Z,14.48
2022-12-03T01:36:25.382Z,14.70
2022-12-03T01:39:29.272Z,15.31
2022-12-03T01:42:33.440Z,14.65
2022-12-03T01:45:37.391Z,14.30
2022-12-03T01:48:41.647Z,14.15
2022-12-03T01:51:45.558Z,13.09
2022-12-03T01:54:49.185Z,13.89
2022-12-03T01:57:53.147Z,14.08
2022-12-03T02:00:57.328Z,13.36
2022-12-03T02:04:01.455Z,13.71
2022-12-03T02:07:05.489Z,13.60
2022-12-03T02:10:10.248Z,13.85
2022-12-03T02:13:14.418Z,13.73
2022-12-03T02:16:18.630Z,13.70
2022-12-03T02:19:22.617Z,13.86
2022-12-03T02:22:26.555Z,13.84
2022-12-03T02:25:30.944Z,13.62
2022-12-03T02:28:34.990Z,14.33
2022-12-03T02:31:38.820Z,14.08
2022-12-03T02:34:44.043Z,14.62
2022-12-03T02:37:47.705Z,14.55
2022-12-03T02:40:54.007Z,15.93
2022-12-03T02:43:57.715Z,15.65
2022-12-03T02:47:01.751Z,15.23
2022-12-03T02:50:05.679Z,15.77
2022-12-03T02:53:09.563Z,15.49
2022-12-03T02:56:13.540Z,16.16
2022-12-03T02:59:17.320Z,15.84
2022-12-03T03:02:21.217Z,15.82
2022-12-03T03:05:25.154Z,15.87
2022-12-03T03:08:29.322Z,15.58
2022-12-03T03:11:33.517Z,15.65
2022-12-03T03:14:37.590Z,15.76
2022-12-03T03:17:41.687Z,16.06
2022-12-03T03:20:45.991Z,17.27
2022-12-03T03:23:50.042Z,18.23
2022-12-03T03:26:54.151Z,18.08
2022-12-03T03:29:58.210Z,17.65
2022-12-03T03:33:02.103Z,18.26
2022-12-03T03:36:06.168Z,18.00
2022-12-03T03:39:10.253Z,17.28
2022-12-03T03:42:14.122Z,17.75
2022-12-03T03:45:19.218Z,17.96
2022-12-03T03:48:25.185Z,16.85
2022-12-03T03:51:29.809Z,17.15
2022-12-03T03:54:33.878Z,17.93
2022-12-03T03:57:38.092Z,18.23
2022-12-03T04:00:41.880Z,18.34
2022-12-03T04:03:45.985Z,18.27
2022-12-03T04:06:50.138Z,17.77
2022-12-03T04:09:54.309Z,17.95
2022-12-03T04:12:58.292Z,17.38
2022-12-03T04:16:02.356Z,17.43
2022-12-03T04:19:08.264Z,17.02
2022-12-03T04:22:12.288Z,17.43
2022-12-03T04:25:16.621Z,17.62
2022-12-03T04:28:20.653Z,17.41
2022-12-03T04:31:24.865Z,16.69
2022-12-03T04:34:28.686Z,17.12
2022-12-03T04:37:32.839Z,17.33
2022-12-03T04:40:36.994Z,16.67
2022-12-03T04:43:41.000Z,16.63
2022-12-03T04:46:45.831Z,16.86
2022-12-03T04:49:50.068Z,16.05
2022-12-03T04:52:54.352Z,15.88
2022-12-03T04:55:58.455Z,16.79
2022-12-03T04:59:02.460Z,15.93
2022-12-03T05:02:06.519Z,16.19
2022-12-03T05:05:10.588Z,16.11
2022-12-03T05:08:14.612Z,16.09
2022-12-03T05:11:18.539Z,15.92
2022-12-03T05:14:22.613Z,16.55
2022-12-03T05:17:26.829Z,15.78
2022-12-03T05:20:31.224Z,16.31
2022-12-03T05:23:35.228Z,15.22
2022-12-03T05:26:39.408Z,15.83
2022-12-03T05:29:43.296Z,14.81
2022-12-03T05:32:47.195Z,14.59
2022-12-03T05:35:51.365Z,14.87
2022-12-03T05:38:55.370Z,14.34
2022-12-03T05:41:59.232Z,14.47
2022-12-03T05:45:03.241Z,15.40
2022-12-03T05:48:07.244Z,15.01
2022-12-03T05:51:11.261Z,15.26
2022-12-03T05:54:15.288Z,14.48
2022-12-03T05:57:20.070Z,14.75
2022-12-03T06:00:24.435Z,14.68
2022-12-03T06:03:28.582Z,14.32
2022-12-03T06:06:32.537Z,14.33
2022-12-03T06:09:36.523Z,14.08
2022-12-03T06:12:40.368Z,15.04
2022-12-03T06:15:44.602Z,15.15
2022-12-03T06:18:48.732Z,14.54
2022-12-03T06:21:52.874Z,15.44
2022-12-03T06:24:59.664Z,15.55
2022-12-03T06:28:07.369Z,15.35
2022-12-03T06:31:11.185Z,14.96
2022-12-03T06:34:15.420Z,14.82
2022-12-03T06:37:19.741Z,14.16
2022-12-03T06:40:23.597Z,14.38
2022-12-03T06:43:27.551Z,13.90
2022-12-03T06:46:31.923Z,15.15
2022-12-03T06:49:35.938Z,14.04
2022-12-03T06:52:39.856Z,14.59
2022-12-03T06:55:44.304Z,13.51
2022-12-03T06:58:48.979Z,13.53
2022-12-03T07:01:53.006Z,13.22
2022-12-03T07:04:57.681Z,13.61
2022-12-03T07:08:02.076Z,12.88
2022-12-03T07:11:06.135Z,13.37
2022-12-03T07:14:10.086Z,12.59
2022-12-03T07:17:14.028Z,12.48
2022-12-03T07:20:18.162Z,12.69
2022-12-03T07:23:22.496Z,12.67
2022-12-03T07:26:26.453Z,12.43
2022-12-03T07:29:30.505Z,12.58
2022-12-03T07:32:34.636Z,12.48
2022-12-03T07:35:38.905Z,12.55
2022-12-03T07:38:42.946Z,13.36
2022-12-03T07:41:46.959Z,12.57
2022-12-03T07:44:51.142Z,12.34
2022-12-03T07:47:54.912Z,13.15
2022-12-03T07:50:59.000Z,13.45
2022-12-03T07:54:02.967Z,13.38
2022-12-03T07:57:07.010Z,12.95
2022-12-03T08:00:10.867Z,13.06
2022-12-03T08:03:14.902Z,12.87
2022-12-03T08:06:19.080Z,13.04
2022-12-03T08:09:23.008Z,12.99
2022-12-03T08:12:26.877Z,13.45
2022-12-03T08:15:35.373Z,12.80
2022-12-03T08:18:43.148Z,12.99
2022-12-03T08:21:47.373Z,13.30
2022-12-03T08:24:51.906Z,13.21
2022-12-03T08:27:56.083Z,13.51
2022-12-03T08:31:00.153Z,13.45
2022-12-03T08:34:04.210Z,13.25
2022-12-03T08:37:08.350Z,13.55
2022-12-03T08:40:12.426Z,13.45
2022-12-03T08:43:16.440Z,14.05
2022-12-03T08:46:20.427Z,14.15
2022-12-03T08:49:24.204Z,13.94
2022-12-03T08:52:30.455Z,14.04
2022-12-03T08:55:34.727Z,13.88
2022-12-03T08:58:38.650Z,13.97
2022-12-03T09:01:42.744Z,14.18
2022-12-03T09:04:46.616Z,14.09
2022-12-03T09:07:51.014Z,14.37
2022-12-03T09:10:54.859Z,14.29
2022-12-03T09:13:58.789Z,14.88
2022-12-03T09:17:02.802Z,14.93
2022-12-03T09:20:06.737Z,14.26
2022-12-03T09:23:10.829Z,14.75
2022-12-03T09:26:14.799Z,14.53
2022-12-03T09:29:18.823Z,14.97
2022-12-03T09:32:22.899Z,14.81
2022-12-03T09:35:29.020Z,14.82
2022-12-03T09:38:32.926Z,15.88
2022-12-03T09:41:37.050Z,14.67
2022-12-03T09:44:41.038Z,16.21
2022-12-03T09:47:45.070Z,16.25
2022-12-03T09:50:48.952Z,15.92
2022-12-03T09:53:53.071Z,15.93
2022-12-03T09:56:57.060Z,15.57
2022-12-03T10:00:01.000Z,15.92
2022-12-03T10:03:04.862Z,15.32
2022-12-03T10:06:09.408Z,16.98
2022-12-03T10:09:13.647Z,17.39
2022-12-03T10:12:17.639Z,17.51
2022-12-03T10:15:21.721Z,18.45
2022-12-03T10:18:28.752Z,17.08
2022-12-03T10:21:34.529Z,16.65
2022-12-03T10:24:38.696Z,16.72
2022-12-03T10:27:44.814Z,16.52
2022-12-03T10:30:48.851Z,17.21
2022-12-03T10:33:52.641Z,16.91
2022-12-03T10:36:56.615Z,17.04
2022-12-03T10:40:00.759Z,15.96
2022-12-03T10:43:04.661Z,16.67
2022-12-03T10:46:08.714Z,16.35
2022-12-03T10:49:12.827Z,16.73
2022-12-03T10:52:21.229Z,16.77
2022-12-03T10:55:27.915Z,16.61
2022-12-03T10:58:32.227Z,17.21
2022-12-03T11:01:36.401Z,16.54
2022-12-03T11:04:40.312Z,16.59
2022-12-03T11:07:44.344Z,16.87
2022-12-03T11:10:48.210Z,16.86
2022-12-03T11:13:52.293Z,17.22
2022-12-03T11:16:56.372Z,17.18
2022-12-03T11:20:00.213Z,16.78
2022-12-03T11:23:04.120Z,17.55
2022-12-03T11:26:08.171Z,17.24
2022-12-03T11:29:12.288Z,16.81
2022-12-03T11:32:16.316Z,17.28
2022-12-03T11:35:20.034Z,16.85
2022-12-03T11:38:23.885Z,16.60
2022-12-03T11:41:28.169Z,17.27
2022-12-03T11:44:32.171Z,16.04
2022-12-03T11:47:36.227Z,16.39
2022-12-03T11:50:40.598Z,16.39
2022-12-03T11:53:46.357Z,16.26
2022-12-03T11:56:50.330Z,17.45
2022-12-03T11:59:54.464Z,17.38
2022-12-03T12:02:58.261Z,16.77
2022-12-03T12:06:02.128Z,17.16
2022-12-03T12:09:06.328Z,17.46
2022-12-03T12:12:10.064Z,17.06
2022-12-03T12:15:14.234Z,16.92
2022-12-03T12:18:17.881Z,17.48
2022-12-03T12:21:22.016Z,17.05
2022-12-03T12:24:25.987Z,16.92
2022-12-03T12:27:30.079Z,16.86
2022-12-03T12:30:34.162Z,17.22
2022-12-03T12:33:38.163Z,17.83
2022-12-03T12:36:42.184Z,17.77
2022-12-03T12:39:46.673Z,17.04
2022-12-03T12:42:50.873Z,17.21
2022-12-03T12:46:45.446Z,17.69
2022-12-03T12:49:33.480Z,17.91
2022-12-03T12:52:37.596Z,17.53
2022-12-03T12:55:41.527Z,17.43
2022-12-03T12:58:45.530Z,17.01
2022-12-03T13:01:49.474Z,17.47
2022-12-03T13:04:53.429Z,17.43
2022-12-03T13:07:57.532Z,17.26
2022-12-03T13:11:01.605Z,17.65
2022-12-03T13:14:05.619Z,18.47
2022-12-03T13:17:09.385Z,18.00
2022-12-03T13:20:14.110Z,17.75
2022-12-03T13:23:18.595Z,17.53
2022-12-03T13:26:36.099Z,17.88
2022-12-03T13:29:41.566Z,17.44
2022-12-03T13:32:45.468Z,17.59
2022-12-03T13:35:49.400Z,18.11
2022-12-03T13:38:53.606Z,17.96
2022-12-03T13:41:57.880Z,18.28
2022-12-03T13:45:01.756Z,17.87
2022-12-03T13:48:05.920Z,17.48
2022-12-03T13:51:09.795Z,18.04
2022-12-03T13:54:16.010Z,17.76
2022-12-03T13:57:20.414Z,17.62
2022-12-03T14:00:24.288Z,18.24
2022-12-03T14:03:28.232Z,18.90
2022-12-03T14:06:32.483Z,19.23
2022-12-03T14:09:36.887Z,19.08
2022-12-03T14:12:41.398Z,18.50
2022-12-03T14:15:45.351Z,19.62
2022-12-03T14:18:49.382Z,19.50
2022-12-03T14:21:53.588Z,19.77
2022-12-03T14:24:57.782Z,19.97
2022-12-03T14:28:01.704Z,19.99
2022-12-03T14:31:05.563Z,19.85
2022-12-03T14:34:09.642Z,20.06
2022-12-03T14:37:13.912Z,20.08
2022-12-03T14:40:21.406Z,21.19
2022-12-03T14:43:26.132Z,20.29
2022-12-03T14:46:30.014Z,20.37
2022-12-03T14:49:33.948Z,20.38
2022-12-03T14:52:37.806Z,20.31
2022-12-03T14:55:41.960Z,20.65
2022-12-03T14:58:45.941Z,20.35
2022-12-03T15:01:49.835Z,20.59
2022-12-03T15:04:53.562Z,21.11
2022-12-03T15:07:57.832Z,20.97
2022-12-03T15:11:01.883Z,21.32
2022-12-03T15:14:05.657Z,21.01
2022-12-03T15:17:09.600Z,20.69
2022-12-03T15:20:15.200Z,20.38
2022-12-03T15:23:19.257Z,20.66
2022-12-03T15:26:23.184Z,21.26
2022-12-03T15:29:27.202Z,20.61
2022-12-03T15:32:32.235Z,19.89
2022-12-03T15:35:36.245Z,20.78
2022-12-03T15:38:40.453Z,20.09
2022-12-03T15:41:44.328Z,20.49
2022-12-03T15:44:48.211Z,20.92
2022-12-03T15:47:52.196Z,21.87
2022-12-03T15:50:56.258Z,21.43
2022-12-03T15:54:00.167Z,20.45
2022-12-03T15:57:04.144Z,22.13
2022-12-03T16:00:07.991Z,20.72
2022-12-03T16:03:12.092Z,21.06
2022-12-03T16:06:15.908Z,21.40
2022-12-03T16:09:25.294Z,21.76
2022-12-03T16:12:31.314Z,21.76
2022-12-03T16:15:35.191Z,21.80
2022-12-03T16:18:39.084Z,21.34
2022-12-03T16:21:42.950Z,21.71
2022-12-03T16:24:47.138Z,20.79
2022-12-03T16:27:51.334Z,21.35
2022-12-03T16:30:55.289Z,21.17
2022-12-03T16:33:59.168Z,21.92
2022-12-03T16:37:03.263Z,21.25
2022-12-03T16:40:07.426Z,20.48
2022-12-03T16:43:11.296Z,19.95
2022-12-03T16:46:15.107Z,20.74
2022-12-03T16:49:19.407Z,20.03
2022-12-03T16:52:23.419Z,19.87
2022-12-03T16:55:27.302Z,19.27
2022-12-03T16:58:31.158Z,19.86
2022-12-03T17:01:35.214Z,20.18
2022-12-03T17:04:39.264Z,24.01
2022-12-03T17:07:43.564Z,20.40
2022-12-03T17:10:47.434Z,18.93
2022-12-03T17:13:51.246Z,19.40
2022-12-03T17:16:55.303Z,20.53
2022-12-03T17:19:59.352Z,20.88
2022-12-03T17:23:03.471Z,19.41
2022-12-03T17:26:07.487Z,20.16
2022-12-03T17:29:11.307Z,20.01
2022-12-03T17:32:15.365Z,20.21
2022-12-03T17:35:19.485Z,21.78
2022-12-03T17:38:23.290Z,20.19
2022-12-03T17:41:27.169Z,27.75
2022-12-03T17:44:31.177Z,25.16
2022-12-03T17:47:35.415Z,22.60
2022-12-03T17:50:39.397Z,20.42
2022-12-03T17:53:43.279Z,21.08
2022-12-03T17:56:47.238Z,20.52
2022-12-03T17:59:51.706Z,20.49
2022-12-03T18:02:56.084Z,20.69
2022-12-03T18:06:00.251Z,21.84
2022-12-03T18:09:04.023Z,20.27
2022-12-03T18:12:07.932Z,20.52
2022-12-03T18:15:12.254Z,23.12
2022-12-03T18:18:16.392Z,20.40
2022-12-03T18:21:20.318Z,22.94
2022-12-03T18:24:24.327Z,21.40
2022-12-03T18:27:28.496Z,23.02
2022-12-03T18:30:32.276Z,61.43
2022-12-03T18:33:36.288Z,23.82
2022-12-03T18:36:40.241Z,20.83
2022-12-03T18:39:44.106Z,23.20
2022-12-03T18:42:47.971Z,21.74
2022-12-03T18:45:52.138Z,20.76
2022-12-03T18:48:56.113Z,20.79
2022-12-03T18:51:59.962Z,26.90
2022-12-03T18:55:03.863Z,25.05
2022-12-03T18:58:07.852Z,24.65
2022-12-03T19:01:11.869Z,27.18
2022-12-03T19:04:15.542Z,22.33
2022-12-03T19:07:19.593Z,21.29
2022-12-03T19:10:23.657Z,21.30
2022-12-03T19:13:27.801Z,22.04
2022-12-03T19:16:31.841Z,21.97
2022-12-03T19:19:35.822Z,21.39
2022-12-03T19:22:39.711Z,23.69
2022-12-03T19:25:44.931Z,21.95
2022-12-03T19:28:48.781Z,21.74
2022-12-03T19:31:52.642Z,21.24
2022-12-03T19:34:56.638Z,20.31
2022-12-03T19:38:00.678Z,20.85
2022-12-03T19:41:04.842Z,20.41
2022-12-03T19:44:11.066Z,20.78
2022-12-03T19:47:14.787Z,20.65
2022-12-03T19:50:23.038Z,20.60
2022-12-03T19:53:27.068Z,21.29
2022-12-03T19:56:31.188Z,21.19
2022-12-03T19:59:35.236Z,20.82
2022-12-03T20:02:39.315Z,21.01
2022-12-03T20:05:43.138Z,20.61
2022-12-03T20:08:47.894Z,20.66
2022-12-03T20:11:52.018Z,20.51
2022-12-03T20:14:56.062Z,20.98
2022-12-03T20:18:00.081Z,21.11
2022-12-03T20:21:03.942Z,21.22
2022-12-03T20:24:07.895Z,21.12
2022-12-03T20:27:11.926Z,20.58
2022-12-03T20:30:15.929Z,20.66
2022-12-03T20:33:19.930Z,20.31
2022-12-03T20:36:24.115Z,20.02
2022-12-03T20:39:28.150Z,20.58
2022-12-03T20:42:32.070Z,20.50
2022-12-03T20:45:36.072Z,20.66
2022-12-03T20:48:40.050Z,19.81
2022-12-03T20:51:44.019Z,20.73
2022-12-03T20:54:47.946Z,20.46
2022-12-03T20:57:51.843Z,20.01
2022-12-03T21:00:55.676Z,20.76
2022-12-03T21:03:59.438Z,21.01
2022-12-03T21:07:03.528Z,20.52
2022-12-03T21:10:07.637Z,20.62
2022-12-03T21:13:11.533Z,19.95
2022-12-03T21:16:15.630Z,20.67
2022-12-03T21:19:19.470Z,19.77
2022-12-03T21:22:23.518Z,20.66
2022-12-03T21:25:27.559Z,20.70
2022-12-03T21:28:31.388Z,20.39
2022-12-03T21:31:35.517Z,20.93
2022-12-03T21:34:39.534Z,20.25
2022-12-03T21:37:43.622Z,20.64
2022-12-03T21:40:47.108Z,19.72
2022-12-03T21:43:51.155Z,19.86
2022-12-03T21:47:11.088Z,20.04
2022-12-03T21:50:17.409Z,19.97
2022-12-03T21:53:21.658Z,19.82
2022-12-03T21:56:25.477Z,20.11
2022-12-03T21:59:29.187Z,20.63
2022-12-03T22:02:33.297Z,19.93
2022-12-03T22:05:37.457Z,20.58
2022-12-03T22:08:41.592Z,21.08
2022-12-03T22:11:45.502Z,20.76
2022-12-03T22:14:49.527Z,21.18
2022-12-03T22:17:55.705Z,21.21
2022-12-03T22:20:59.815Z,21.33
2022-12-03T22:24:03.788Z,20.89
2022-12-03T22:27:07.598Z,21.27
2022-12-03T22:30:11.399Z,21.17
2022-12-03T22:33:15.306Z,21.63
2022-12-03T22:36:21.424Z,22.38
2022-12-03T22:39:25.758Z,21.55
2022-12-03T22:42:29.695Z,22.01
2022-12-03T22:45:33.778Z,21.59
2022-12-03T22:48:37.921Z,21.91
2022-12-03T22:51:42.070Z,21.03
2022-12-03T22:54:46.318Z,20.94
2022-12-03T22:57:50.284Z,20.55
2022-12-03T23:00:58.570Z,20.53
2022-12-03T23:04:06.148Z,20.81
2022-12-03T23:07:09.834Z,21.32
2022-12-03T23:10:13.866Z,20.29
2022-12-03T23:13:17.961Z,19.55
2022-12-03T23:16:22.113Z,19.73
2022-12-03T23:19:25.932Z,19.56
2022-12-03T23:22:30.011Z,19.25
2022-12-03T23:25:34.073Z,19.38
2022-12-03T23:28:38.154Z,19.90
2022-12-03T23:31:42.099Z,20.21
2022-12-03T23:34:45.965Z,19.93
2022-12-03T23:37:49.923Z,19.74
2022-12-03T23:40:53.937Z,19.63
2022-12-03T23:43:57.746Z,19.42
2022-12-03T23:47:01.725Z,20.26
2022-12-03T23:50:05.670Z,18.78
2022-12-03T23:53:09.763Z,19.87
2022-12-03T23:56:13.750Z,19.67
2022-12-03T23:59:17.578Z,20.09
